createdAt,value
2023-02-15T00:01:39.416Z,3.54
2023-02-15T00:04:07.120Z,3.57
2023-02-15T00:06:35.232Z,3.57
2023-02-15T00:09:02.896Z,3.54
2023-02-15T00:11:44.179Z,3.49
2023-02-15T00:14:11.824Z,3.42
2023-02-15T00:16:39.454Z,3.35
2023-02-15T00:19:07.172Z,3.26
2023-02-15T00:21:34.828Z,3.19
2023-02-15T00:24:02.792Z,3.12
2023-02-15T00:26:30.481Z,3.08
2023-02-15T00:29:00.621Z,3.05
2023-02-15T00:31:28.619Z,3.03
2023-02-15T00:33:56.425Z,3.02
2023-02-15T00:36:24.655Z,3.01
2023-02-15T00:38:52.361Z,3.02
2023-02-15T00:41:20.044Z,3.01
2023-02-15T00:43:47.728Z,2.97
2023-02-15T00:46:15.394Z,2.94
2023-02-15T00:48:44.511Z,2.95
2023-02-15T00:51:12.125Z,2.95
2023-02-15T00:53:39.769Z,2.95
2023-02-15T00:56:07.441Z,2.96
2023-02-15T00:58:35.082Z,2.98
2023-02-15T01:01:03.148Z,2.98
2023-02-15T01:03:30.828Z,2.96
2023-02-15T01:05:58.722Z,2.97
2023-02-15T01:08:26.532Z,2.98
2023-02-15T01:10:54.464Z,3.01
2023-02-15T01:13:22.420Z,3.02
2023-02-15T01:15:50.051Z,3.03
2023-02-15T01:18:17.982Z,3.01
2023-02-15T01:20:45.576Z,2.96
2023-02-15T01:23:13.173Z,2.93
2023-02-15T01:25:41.288Z,2.92
2023-02-15T01:28:09.042Z,2.94
2023-02-15T01:30:36.674Z,2.95
2023-02-15T01:33:04.312Z,2.97
2023-02-15T01:35:31.924Z,2.99
2023-02-15T01:38:00.044Z,3.01
2023-02-15T01:40:27.728Z,3.00
2023-02-15T01:42:55.469Z,2.99
2023-02-15T01:45:23.330Z,2.97
2023-02-15T01:47:50.964Z,2.92
2023-02-15T01:50:19.140Z,2.89
2023-02-15T01:52:47.192Z,2.85
2023-02-15T01:55:14.918Z,2.81
2023-02-15T01:57:42.528Z,2.77
2023-02-15T02:00:10.103Z,2.74
2023-02-15T02:02:38.341Z,2.71
2023-02-15T02:05:07.535Z,2.70
2023-02-15T02:07:35.147Z,2.69
2023-02-15T02:10:02.815Z,2.69
2023-02-15T02:12:30.408Z,2.69
2023-02-15T02:14:59.985Z,2.69
2023-02-15T02:17:27.657Z,2.71
2023-02-15T02:19:55.302Z,2.76
2023-02-15T02:22:22.941Z,2.81
2023-02-15T02:24:50.849Z,2.84
2023-02-15T02:27:18.867Z,2.86
2023-02-15T02:29:46.467Z,2.83
2023-02-15T02:32:14.088Z,2.76
2023-02-15T02:34:42.553Z,2.78
2023-02-15T02:37:10.674Z,2.85
2023-02-15T02:39:38.534Z,2.93
2023-02-15T02:42:06.130Z,2.96
2023-02-15T02:44:33.721Z,2.94
2023-02-15T02:47:01.794Z,2.90
2023-02-15T02:49:29.393Z,2.84
2023-02-15T02:51:57.175Z,2.75
2023-02-15T02:54:24.815Z,2.66
2023-02-15T02:56:52.406Z,2.59
2023-02-15T02:59:20.832Z,2.53
2023-02-15T03:01:48.533Z,2.47
2023-02-15T03:04:16.166Z,2.40
2023-02-15T03:06:43.861Z,2.34
2023-02-15T03:09:15.618Z,2.28
2023-02-15T03:11:43.573Z,2.23
2023-02-15T03:14:11.165Z,2.19
2023-02-15T03:16:38.850Z,2.16
2023-02-15T03:19:06.860Z,2.13
2023-02-15T03:21:34.800Z,2.14
2023-02-15T03:24:02.782Z,2.15
2023-02-15T03:26:30.377Z,2.17
2023-02-15T03:28:58.104Z,2.18
2023-02-15T03:31:25.787Z,2.19
2023-02-15T03:33:53.428Z,2.16
2023-02-15T03:36:21.437Z,2.13
2023-02-15T03:38:49.054Z,2.07
2023-02-15T03:41:16.860Z,2.03
2023-02-15T03:43:44.887Z,1.95
2023-02-15T03:46:12.504Z,1.85
2023-02-15T03:48:40.121Z,1.78
2023-02-15T03:51:25.547Z,1.71
2023-02-15T03:53:53.228Z,1.68
2023-02-15T03:56:20.813Z,1.65
2023-02-15T03:59:05.778Z,1.64
2023-02-15T04:01:59.252Z,1.62
2023-02-15T04:04:27.041Z,1.63
2023-02-15T04:06:54.623Z,1.62
2023-02-15T04:09:39.986Z,1.62
2023-02-15T04:12:07.693Z,1.63
2023-02-15T04:14:52.545Z,1.62
2023-02-15T04:17:20.135Z,1.61
2023-02-15T04:20:05.781Z,1.59
2023-02-15T04:22:50.749Z,1.61
2023-02-15T04:25:18.797Z,1.65
2023-02-15T04:27:46.587Z,1.67
2023-02-15T04:30:14.297Z,1.66
2023-02-15T04:32:42.005Z,1.65
2023-02-15T04:35:10.348Z,1.61
2023-02-15T04:37:37.906Z,1.63
2023-02-15T04:40:05.573Z,1.64
2023-02-15T04:42:33.541Z,1.59
2023-02-15T04:45:01.125Z,1.55
2023-02-15T04:47:29.197Z,1.53
2023-02-15T04:49:58.118Z,1.49
2023-02-15T04:52:26.056Z,1.46
2023-02-15T04:54:53.717Z,1.41
2023-02-15T04:57:21.327Z,1.37
2023-02-15T04:59:49.014Z,1.33
2023-02-15T05:02:16.627Z,1.29
2023-02-15T05:04:44.537Z,1.28
2023-02-15T05:07:12.500Z,1.27
2023-02-15T05:09:40.474Z,1.25
2023-02-15T05:12:08.077Z,1.23
2023-02-15T05:14:35.674Z,1.26
2023-02-15T05:17:04.454Z,1.27
2023-02-15T05:19:32.401Z,1.30
2023-02-15T05:21:59.977Z,1.30
2023-02-15T05:24:44.893Z,1.28
2023-02-15T05:27:29.914Z,1.27
2023-02-15T05:29:59.306Z,1.24
2023-02-15T05:32:27.270Z,1.22
2023-02-15T05:34:54.922Z,1.22
2023-02-15T05:37:22.702Z,1.23
2023-02-15T05:39:50.292Z,1.24
2023-02-15T05:42:18.084Z,1.24
2023-02-15T05:44:45.726Z,1.25
2023-02-15T05:47:13.297Z,1.27
2023-02-15T05:49:40.844Z,1.25
2023-02-15T05:52:09.474Z,1.22
2023-02-15T05:54:37.301Z,1.20
2023-02-15T05:57:04.875Z,1.20
2023-02-15T05:59:32.615Z,1.21
2023-02-15T06:02:00.264Z,1.21
2023-02-15T06:04:27.873Z,1.24
2023-02-15T06:06:56.051Z,1.28
2023-02-15T06:09:23.666Z,1.30
2023-02-15T06:11:51.614Z,1.32
2023-02-15T06:14:19.678Z,1.30
2023-02-15T06:16:47.298Z,1.28
2023-02-15T06:19:15.481Z,1.23
2023-02-15T06:21:43.287Z,1.18
2023-02-15T06:24:10.914Z,1.15
2023-02-15T06:26:38.500Z,1.11
2023-02-15T06:29:06.188Z,1.09
2023-02-15T06:31:34.127Z,1.09
2023-02-15T06:34:03.105Z,1.11
2023-02-15T06:36:31.176Z,1.14
2023-02-15T06:38:58.770Z,1.18
2023-02-15T06:41:26.440Z,1.20
2023-02-15T06:43:54.654Z,1.21
2023-02-15T06:46:22.420Z,1.22
2023-02-15T06:48:50.053Z,1.16
2023-02-15T06:51:17.716Z,1.12
2023-02-15T06:53:45.403Z,1.04
2023-02-15T06:56:13.600Z,1.02
2023-02-15T06:58:41.647Z,0.97
2023-02-15T07:01:09.358Z,0.97
2023-02-15T07:03:37.040Z,0.96
2023-02-15T07:06:09.478Z,0.97
2023-02-15T07:08:37.520Z,0.99
2023-02-15T07:11:18.945Z,1.02
2023-02-15T07:13:46.519Z,1.08
2023-02-15T07:16:14.145Z,1.13
2023-02-15T07:18:44.285Z,1.16
2023-02-15T07:21:11.937Z,1.19
2023-02-15T07:23:39.732Z,1.19
2023-02-15T07:26:07.478Z,1.18
2023-02-15T07:28:35.089Z,1.18
2023-02-15T07:31:03.311Z,1.19
2023-02-15T07:33:31.100Z,1.25
2023-02-15T07:35:59.102Z,1.30
2023-02-15T07:38:27.205Z,1.38
2023-02-15T07:40:55.245Z,1.48
2023-02-15T07:43:23.493Z,1.58
2023-02-15T07:45:51.241Z,1.67
2023-02-15T07:48:19.258Z,1.74
2023-02-15T07:50:46.916Z,1.81
2023-02-15T07:53:14.551Z,1.87
2023-02-15T07:55:42.916Z,1.94
2023-02-15T07:58:10.594Z,2.05
2023-02-15T08:00:57.946Z,2.15
2023-02-15T08:03:27.921Z,2.28
2023-02-15T08:05:56.226Z,2.37
2023-02-15T08:08:33.209Z,2.50
2023-02-15T08:11:18.346Z,2.70
2023-02-15T08:13:54.837Z,2.97
2023-02-15T08:16:23.505Z,3.38
2023-02-15T08:18:51.326Z,3.82
2023-02-15T08:21:19.399Z,4.26
2023-02-15T08:23:47.178Z,4.51
2023-02-15T08:26:14.887Z,4.65
2023-02-15T08:28:43.005Z,4.70
2023-02-15T08:31:10.971Z,4.81
2023-02-15T08:33:38.841Z,5.02
2023-02-15T08:36:06.647Z,5.29
2023-02-15T08:38:34.736Z,5.51
2023-02-15T08:41:03.266Z,5.68
2023-02-15T08:43:32.516Z,5.86
2023-02-15T08:46:00.316Z,6.01
2023-02-15T08:48:28.654Z,6.20
2023-02-15T08:50:56.401Z,6.42
2023-02-15T08:53:24.596Z,6.63
2023-02-15T08:55:52.458Z,6.77
2023-02-15T08:58:20.397Z,6.85
2023-02-15T09:00:48.330Z,6.96
2023-02-15T09:03:16.119Z,7.15
2023-02-15T09:05:44.392Z,7.35
2023-02-15T09:08:12.183Z,7.51
2023-02-15T09:10:39.982Z,7.62
2023-02-15T09:13:07.943Z,7.66
2023-02-15T09:15:35.744Z,7.68
2023-02-15T09:18:07.642Z,7.70
2023-02-15T09:20:35.445Z,7.71
2023-02-15T09:23:03.307Z,7.69
2023-02-15T09:25:31.193Z,7.72
2023-02-15T09:27:59.539Z,7.77
2023-02-15T09:30:28.225Z,7.82
2023-02-15T09:32:56.496Z,7.82
2023-02-15T09:35:24.363Z,7.80
2023-02-15T09:37:52.123Z,7.79
2023-02-15T09:40:20.094Z,7.82
2023-02-15T09:42:48.490Z,7.82
2023-02-15T09:45:18.396Z,7.84
2023-02-15T09:47:46.588Z,7.88
2023-02-15T09:50:14.733Z,7.93
2023-02-15T09:52:42.659Z,8.01
2023-02-15T09:55:11.150Z,8.10
2023-02-15T09:57:38.900Z,8.23
2023-02-15T10:00:06.685Z,8.34
2023-02-15T10:02:34.809Z,8.49
2023-02-15T10:05:02.782Z,8.69
2023-02-15T10:07:30.776Z,8.87
2023-02-15T10:09:58.558Z,9.08
2023-02-15T10:12:26.734Z,9.30
2023-02-15T10:14:54.409Z,9.53
2023-02-15T10:17:22.372Z,9.81
2023-02-15T10:19:51.133Z,10.24
2023-02-15T10:22:19.608Z,10.94
2023-02-15T10:24:48.921Z,11.88
2023-02-15T10:27:16.982Z,13.03
2023-02-15T10:29:44.808Z,14.30
2023-02-15T10:32:13.875Z,15.57
2023-02-15T10:34:41.638Z,16.70
2023-02-15T10:37:09.382Z,17.78
2023-02-15T10:39:37.302Z,18.72
2023-02-15T10:42:05.139Z,19.64
2023-02-15T10:44:33.575Z,20.58
2023-02-15T10:47:01.521Z,21.43
2023-02-15T10:49:29.292Z,22.06
2023-02-15T10:51:57.197Z,22.68
2023-02-15T10:54:25.407Z,23.21
2023-02-15T10:56:53.830Z,23.46
2023-02-15T10:59:21.681Z,23.57
2023-02-15T11:01:49.555Z,23.73
2023-02-15T11:04:17.547Z,23.94
2023-02-15T11:06:49.529Z,24.12
2023-02-15T11:09:19.830Z,24.37
2023-02-15T11:11:47.726Z,24.24
2023-02-15T11:14:15.592Z,23.73
2023-02-15T11:16:45.436Z,23.45
2023-02-15T11:19:13.385Z,23.07
2023-02-15T11:21:42.704Z,22.91
2023-02-15T11:24:10.555Z,23.04
2023-02-15T11:26:38.411Z,23.02
2023-02-15T11:29:06.369Z,23.12
2023-02-15T11:31:34.355Z,23.12
2023-02-15T11:34:03.405Z,23.18
2023-02-15T11:36:31.341Z,23.20
2023-02-15T11:38:59.588Z,23.27
2023-02-15T11:41:27.725Z,23.44
2023-02-15T11:43:55.732Z,23.82
2023-02-15T11:46:24.594Z,23.95
2023-02-15T11:48:52.592Z,23.86
2023-02-15T11:51:22.120Z,23.67
2023-02-15T11:53:51.843Z,23.65
2023-02-15T11:56:19.832Z,23.61
2023-02-15T11:58:48.608Z,23.52
2023-02-15T12:01:16.601Z,23.32
2023-02-15T12:03:45.760Z,22.98
2023-02-15T12:06:13.816Z,22.59
2023-02-15T12:08:41.678Z,22.25
2023-02-15T12:11:13.898Z,22.19
2023-02-15T12:13:41.772Z,22.18
2023-02-15T12:16:11.505Z,22.47
2023-02-15T12:18:40.253Z,22.52
2023-02-15T12:21:08.246Z,22.48
2023-02-15T12:23:36.795Z,22.59
2023-02-15T12:26:04.841Z,22.76
2023-02-15T12:28:32.779Z,22.93
2023-02-15T12:31:01.235Z,22.87
2023-02-15T12:33:29.519Z,22.72
2023-02-15T12:35:57.961Z,22.59
2023-02-15T12:38:25.830Z,22.54
2023-02-15T12:40:54.003Z,22.32
2023-02-15T12:43:22.253Z,22.03
2023-02-15T12:45:49.986Z,21.87
2023-02-15T12:48:18.893Z,21.84
2023-02-15T12:50:46.946Z,21.73
2023-02-15T12:53:14.990Z,21.70
2023-02-15T12:55:45.866Z,21.53
2023-02-15T12:58:15.218Z,21.42
2023-02-15T13:00:43.674Z,21.29
2023-02-15T13:03:11.847Z,21.30
2023-02-15T13:05:39.857Z,21.35
2023-02-15T13:08:07.802Z,21.20
2023-02-15T13:10:35.609Z,21.09
2023-02-15T13:13:04.742Z,21.08
2023-02-15T13:15:32.673Z,21.08
2023-02-15T13:18:00.594Z,21.07
2023-02-15T13:20:28.584Z,21.00
2023-02-15T13:22:56.442Z,20.78
2023-02-15T13:25:25.001Z,20.66
2023-02-15T13:27:53.246Z,20.62
2023-02-15T13:30:21.297Z,20.50
2023-02-15T13:32:49.159Z,20.38
2023-02-15T13:35:17.022Z,20.23
2023-02-15T13:37:45.735Z,20.05
2023-02-15T13:40:13.497Z,19.91
2023-02-15T13:42:41.516Z,19.90
2023-02-15T13:45:09.545Z,19.91
2023-02-15T13:47:37.326Z,19.88
2023-02-15T13:50:07.894Z,19.82
2023-02-15T13:52:39.082Z,19.72
2023-02-15T13:55:07.158Z,19.51
2023-02-15T13:57:34.996Z,19.40
2023-02-15T14:00:03.039Z,19.35
2023-02-15T14:02:31.807Z,19.37
2023-02-15T14:04:59.663Z,19.43
2023-02-15T14:07:27.506Z,19.61
2023-02-15T14:09:55.449Z,19.82
2023-02-15T14:12:24.108Z,19.97
2023-02-15T14:14:52.773Z,20.03
2023-02-15T14:17:20.763Z,20.01
2023-02-15T14:19:51.134Z,19.99
2023-02-15T14:22:19.145Z,19.93
2023-02-15T14:24:47.661Z,19.89
2023-02-15T14:27:16.243Z,19.79
2023-02-15T14:29:44.265Z,19.70
2023-02-15T14:32:12.439Z,19.76
2023-02-15T14:34:40.447Z,19.91
2023-02-15T14:37:08.471Z,20.01
2023-02-15T14:39:54.036Z,20.07
2023-02-15T14:42:22.358Z,20.04
2023-02-15T14:44:51.954Z,20.11
2023-02-15T14:47:19.986Z,20.22
2023-02-15T14:49:48.215Z,20.35
2023-02-15T14:52:16.720Z,20.51
2023-02-15T14:54:46.069Z,20.79
2023-02-15T14:57:14.064Z,21.09
2023-02-15T14:59:41.885Z,21.26
2023-02-15T15:02:09.861Z,21.23
2023-02-15T15:04:37.839Z,21.06
2023-02-15T15:07:05.950Z,20.75
2023-02-15T15:09:33.814Z,20.35
2023-02-15T15:12:02.527Z,19.93
2023-02-15T15:14:30.471Z,19.51
2023-02-15T15:16:58.852Z,19.13
2023-02-15T15:19:27.088Z,18.79
2023-02-15T15:21:54.916Z,18.44
2023-02-15T15:24:22.882Z,18.08
2023-02-15T15:26:52.051Z,17.73
2023-02-15T15:29:20.306Z,17.38
2023-02-15T15:31:48.608Z,17.03
2023-02-15T15:34:16.909Z,16.71
2023-02-15T15:36:44.880Z,16.39
2023-02-15T15:39:13.212Z,16.11
2023-02-15T15:41:41.619Z,15.83
2023-02-15T15:44:09.584Z,15.56
2023-02-15T15:46:37.725Z,15.33
2023-02-15T15:49:05.687Z,15.13
2023-02-15T15:51:34.365Z,14.94
2023-02-15T15:54:02.784Z,14.76
2023-02-15T15:56:32.736Z,14.59
2023-02-15T15:59:00.610Z,14.43
2023-02-15T16:01:28.569Z,14.27
2023-02-15T16:03:56.563Z,14.14
2023-02-15T16:06:24.598Z,13.99
2023-02-15T16:08:52.924Z,13.89
2023-02-15T16:11:20.920Z,13.78
2023-02-15T16:13:48.768Z,13.64
2023-02-15T16:16:17.003Z,13.50
2023-02-15T16:18:45.400Z,13.37
2023-02-15T16:21:14.854Z,13.28
2023-02-15T16:23:44.948Z,13.16
2023-02-15T16:26:12.928Z,13.03
2023-02-15T16:28:41.355Z,12.89
2023-02-15T16:31:13.146Z,12.70
2023-02-15T16:33:41.834Z,12.55
2023-02-15T16:36:09.937Z,12.42
2023-02-15T16:38:37.915Z,12.31
2023-02-15T16:41:08.163Z,12.19
2023-02-15T16:43:36.829Z,12.05
2023-02-15T16:46:05.331Z,11.87
2023-02-15T16:48:33.175Z,11.69
2023-02-15T16:51:01.710Z,11.60
2023-02-15T16:53:29.874Z,11.49
2023-02-15T16:55:58.249Z,11.40
2023-02-15T16:58:26.443Z,11.30
2023-02-15T17:00:54.397Z,11.23
2023-02-15T17:03:22.362Z,11.18
2023-02-15T17:05:50.288Z,11.13
2023-02-15T17:08:19.225Z,11.10
2023-02-15T17:10:47.613Z,11.09
2023-02-15T17:13:15.543Z,11.14
2023-02-15T17:15:43.644Z,11.17
2023-02-15T17:18:11.799Z,11.16
2023-02-15T17:20:40.301Z,11.11
2023-02-15T17:23:10.135Z,11.07
2023-02-15T17:25:38.168Z,10.99
2023-02-15T17:28:06.588Z,10.92
2023-02-15T17:30:34.893Z,10.82
2023-02-15T17:33:03.502Z,10.74
2023-02-15T17:35:31.922Z,10.67
2023-02-15T17:38:00.048Z,10.63
2023-02-15T17:40:28.184Z,10.59
2023-02-15T17:42:55.978Z,10.60
2023-02-15T17:45:24.858Z,10.65
2023-02-15T17:47:52.986Z,10.70
2023-02-15T17:50:20.903Z,10.74
2023-02-15T17:52:49.016Z,10.78
2023-02-15T17:55:34.988Z,10.78
2023-02-15T17:58:03.015Z,10.77
2023-02-15T18:00:48.325Z,10.77
2023-02-15T18:03:33.661Z,10.75
2023-02-15T18:06:21.173Z,10.68
2023-02-15T18:09:06.599Z,10.59
2023-02-15T18:11:40.849Z,10.54
2023-02-15T18:14:08.880Z,10.54
2023-02-15T18:16:37.903Z,10.53
2023-02-15T18:19:06.472Z,10.53
2023-02-15T18:21:34.534Z,10.53
2023-02-15T18:24:02.413Z,10.52
2023-02-15T18:26:30.631Z,10.49
2023-02-15T18:28:59.584Z,10.46
2023-02-15T18:31:27.619Z,10.42
2023-02-15T18:33:55.484Z,10.39
2023-02-15T18:36:23.567Z,10.32
2023-02-15T18:38:51.538Z,10.22
2023-02-15T18:41:20.682Z,10.13
2023-02-15T18:43:49.315Z,10.05
2023-02-15T18:46:17.348Z,9.96
2023-02-15T18:48:46.768Z,9.90
2023-02-15T18:51:15.875Z,9.84
2023-02-15T18:53:44.362Z,9.77
2023-02-15T18:56:12.246Z,9.68
2023-02-15T18:58:40.265Z,9.58
2023-02-15T19:01:08.489Z,9.48
2023-02-15T19:03:36.716Z,9.37
2023-02-15T19:06:07.892Z,9.26
2023-02-15T19:08:35.753Z,9.16
2023-02-15T19:11:04.310Z,9.07
2023-02-15T19:13:34.712Z,8.99
2023-02-15T19:16:05.119Z,8.92
2023-02-15T19:18:33.781Z,8.85
2023-02-15T19:21:01.654Z,8.79
2023-02-15T19:23:29.571Z,8.76
2023-02-15T19:25:57.596Z,8.72
2023-02-15T19:28:25.700Z,8.69
2023-02-15T19:30:53.969Z,8.68
2023-02-15T19:33:22.001Z,8.64
2023-02-15T19:35:52.657Z,8.62
2023-02-15T19:38:20.827Z,8.61
2023-02-15T19:40:48.877Z,8.61
2023-02-15T19:43:17.410Z,8.66
2023-02-15T19:45:45.333Z,8.73
2023-02-15T19:48:13.212Z,8.83
2023-02-15T19:50:41.444Z,8.92
2023-02-15T19:53:09.667Z,8.98
2023-02-15T19:55:38.497Z,9.03
2023-02-15T19:58:06.395Z,9.08
2023-02-15T20:00:34.224Z,9.05
2023-02-15T20:03:02.362Z,9.03
2023-02-15T20:05:30.382Z,9.00
2023-02-15T20:07:58.712Z,8.95
2023-02-15T20:10:26.603Z,8.89
2023-02-15T20:12:55.459Z,8.81
2023-02-15T20:15:24.493Z,8.71
2023-02-15T20:17:52.713Z,8.60
2023-02-15T20:20:21.182Z,8.49
2023-02-15T20:22:49.251Z,8.36
2023-02-15T20:25:17.161Z,8.24
2023-02-15T20:27:45.696Z,8.15
2023-02-15T20:30:13.781Z,8.05
2023-02-15T20:32:42.221Z,8.00
2023-02-15T20:35:10.312Z,7.93
2023-02-15T20:37:38.648Z,7.86
2023-02-15T20:40:06.847Z,7.79
2023-02-15T20:42:34.760Z,7.69
2023-02-15T20:45:03.611Z,7.59
2023-02-15T20:47:31.530Z,7.50
2023-02-15T20:49:59.529Z,7.42
2023-02-15T20:52:27.604Z,7.33
2023-02-15T20:54:55.557Z,7.33
2023-02-15T20:57:24.100Z,7.39
2023-02-15T20:59:52.579Z,7.46
2023-02-15T21:02:21.237Z,7.51
2023-02-15T21:04:49.581Z,7.50
2023-02-15T21:07:18.220Z,7.50
2023-02-15T21:09:46.551Z,7.45
2023-02-15T21:12:14.687Z,7.34
2023-02-15T21:14:42.661Z,7.23
2023-02-15T21:17:10.946Z,7.12
2023-02-15T21:19:40.994Z,7.01
2023-02-15T21:22:10.272Z,6.91
2023-02-15T21:24:38.131Z,6.80
2023-02-15T21:27:06.556Z,6.72
2023-02-15T21:29:35.962Z,6.65
2023-02-15T21:32:04.310Z,6.60
2023-02-15T21:34:32.985Z,6.54
2023-02-15T21:37:00.839Z,6.51
2023-02-15T21:39:28.855Z,6.45
2023-02-15T21:42:29.285Z,6.42
2023-02-15T21:45:15.000Z,6.51
2023-02-15T21:47:51.970Z,6.67
2023-02-15T21:50:36.946Z,6.85
2023-02-15T21:53:04.753Z,6.98
2023-02-15T21:55:33.665Z,7.06
2023-02-15T21:58:01.895Z,7.07
2023-02-15T22:00:29.965Z,7.14
2023-02-15T22:02:58.410Z,7.22
2023-02-15T22:05:26.236Z,7.27
2023-02-15T22:07:54.542Z,7.31
2023-02-15T22:10:22.904Z,7.29
2023-02-15T22:12:50.896Z,7.32
2023-02-15T22:15:19.092Z,7.37
2023-02-15T22:17:46.923Z,7.44
2023-02-15T22:20:15.277Z,7.49
2023-02-15T22:22:43.532Z,7.53
2023-02-15T22:25:11.885Z,7.55
2023-02-15T22:27:39.668Z,7.57
2023-02-15T22:30:08.462Z,7.57
2023-02-15T22:32:36.615Z,7.56
2023-02-15T22:35:04.824Z,7.51
2023-02-15T22:37:33.417Z,7.44
2023-02-15T22:40:01.146Z,7.38
2023-02-15T22:42:28.893Z,7.30
2023-02-15T22:44:57.085Z,7.25
2023-02-15T22:47:26.263Z,7.19
2023-02-15T22:49:54.700Z,7.15
2023-02-15T22:52:22.530Z,7.10
2023-02-15T22:54:50.194Z,7.08
2023-02-15T22:57:17.983Z,7.05
2023-02-15T22:59:46.045Z,7.01
2023-02-15T23:02:13.734Z,6.95
2023-02-15T23:04:41.500Z,6.90
2023-02-15T23:07:09.264Z,6.87
2023-02-15T23:09:37.884Z,6.82
2023-02-15T23:12:05.574Z,6.75
2023-02-15T23:14:33.314Z,6.69
2023-02-15T23:17:01.010Z,6.68
2023-02-15T23:19:29.026Z,6.69
2023-02-15T23:21:57.012Z,6.75
2023-02-15T23:24:24.738Z,6.75
2023-02-15T23:26:52.335Z,6.72
2023-02-15T23:29:19.991Z,6.68
2023-02-15T23:31:47.742Z,6.60
2023-02-15T23:34:15.867Z,6.57
2023-02-15T23:36:44.567Z,6.53
2023-02-15T23:39:25.967Z,6.49
2023-02-15T23:41:53.687Z,6.45
2023-02-15T23:44:21.777Z,6.41
2023-02-15T23:46:49.486Z,6.39
2023-02-15T23:49:17.282Z,6.38
2023-02-15T23:51:45.356Z,6.37
2023-02-15T23:54:12.941Z,6.33
2023-02-15T23:56:40.947Z,6.32
2023-02-15T23:59:08.738Z,6.34
